sensor_id;sensor_type;location;lat;lon;timestamp;temperature;humidity
57709;SHT35;42558;52.388;13.390;2023-03-01T00:02:05;-3.38;83.30
57709;SHT35;42558;52.388;13.390;2023-03-01T00:04:35;-3.39;83.25
57709;SHT35;42558;52.388;13.390;2023-03-01T00:07:05;-3.40;83.32
57709;SHT35;42558;52.388;13.390;2023-03-01T00:09:35;-3.40;83.38
57709;SHT35;42558;52.388;13.390;2023-03-01T00:12:06;-3.40;83.47
57709;SHT35;42558;52.388;13.390;2023-03-01T00:14:41;-3.36;83.70
57709;SHT35;42558;52.388;13.390;2023-03-01T00:17:08;-3.39;83.45
57709;SHT35;42558;52.388;13.390;2023-03-01T00:19:37;-3.47;83.18
57709;SHT35;42558;52.388;13.390;2023-03-01T00:22:05;-3.49;83.37
57709;SHT35;42558;52.388;13.390;2023-03-01T00:24:34;-3.52;83.51
57709;SHT35;42558;52.388;13.390;2023-03-01T00:27:02;-3.54;83.58
57709;SHT35;42558;52.388;13.390;2023-03-01T00:29:30;-3.56;83.69
57709;SHT35;42558;52.388;13.390;2023-03-01T00:31:59;-3.58;83.65
57709;SHT35;42558;52.388;13.390;2023-03-01T00:34:27;-3.62;83.71
57709;SHT35;42558;52.388;13.390;2023-03-01T00:36:56;-3.63;83.89
57709;SHT35;42558;52.388;13.390;2023-03-01T00:39:33;-3.66;83.93
57709;SHT35;42558;52.388;13.390;2023-03-01T00:42:03;-3.69;84.01
57709;SHT35;42558;52.388;13.390;2023-03-01T00:44:34;-3.72;83.99
57709;SHT35;42558;52.388;13.390;2023-03-01T00:47:04;-3.75;84.06
57709;SHT35;42558;52.388;13.390;2023-03-01T00:49:34;-3.76;84.13
57709;SHT35;42558;52.388;13.390;2023-03-01T00:52:04;-3.78;84.18
57709;SHT35;42558;52.388;13.390;2023-03-01T00:54:33;-3.77;84.31
57709;SHT35;42558;52.388;13.390;2023-03-01T00:57:03;-3.80;84.20
57709;SHT35;42558;52.388;13.390;2023-03-01T00:59:33;-3.83;84.17
57709;SHT35;42558;52.388;13.390;2023-03-01T01:02:03;-3.83;84.32
57709;SHT35;42558;52.388;13.390;2023-03-01T01:04:33;-3.81;84.48
57709;SHT35;42558;52.388;13.390;2023-03-01T01:07:03;-3.83;84.37
57709;SHT35;42558;52.388;13.390;2023-03-01T01:09:32;-3.86;84.20
57709;SHT35;42558;52.388;13.390;2023-03-01T01:12:02;-3.91;84.18
57709;SHT35;42558;52.388;13.390;2023-03-01T01:14:34;-3.92;84.32
57709;SHT35;42558;52.388;13.390;2023-03-01T01:17:04;-3.88;84.50
57709;SHT35;42558;52.388;13.390;2023-03-01T01:19:34;-3.86;84.51
57709;SHT35;42558;52.388;13.390;2023-03-01T01:22:04;-3.89;84.37
57709;SHT35;42558;52.388;13.390;2023-03-01T01:24:34;-3.94;84.21
57709;SHT35;42558;52.388;13.390;2023-03-01T01:27:04;-4.00;84.19
57709;SHT35;42558;52.388;13.390;2023-03-01T01:29:35;-4.04;84.34
57709;SHT35;42558;52.388;13.390;2023-03-01T01:32:06;-4.04;84.67
57709;SHT35;42558;52.388;13.390;2023-03-01T01:34:36;-4.03;84.86
57709;SHT35;42558;52.388;13.390;2023-03-01T01:37:06;-4.01;84.95
57709;SHT35;42558;52.388;13.390;2023-03-01T01:39:36;-4.02;85.01
57709;SHT35;42558;52.388;13.390;2023-03-01T01:42:05;-4.04;84.99
57709;SHT35;42558;52.388;13.390;2023-03-01T01:44:45;-4.04;85.07
57709;SHT35;42558;52.388;13.390;2023-03-01T01:47:17;-4.04;85.12
57709;SHT35;42558;52.388;13.390;2023-03-01T01:49:54;-4.04;85.24
57709;SHT35;42558;52.388;13.390;2023-03-01T01:52:30;-4.02;85.85
57709;SHT35;42558;52.388;13.390;2023-03-01T01:58:09;-4.05;85.70
57709;SHT35;42558;52.388;13.390;2023-03-01T02:00:44;-4.06;85.61
57709;SHT35;42558;52.388;13.390;2023-03-01T02:03:26;-4.11;85.45
57709;SHT35;42558;52.388;13.390;2023-03-01T02:06:11;-4.15;85.29
57709;SHT35;42558;52.388;13.390;2023-03-01T02:09:12;-4.20;85.11
57709;SHT35;42558;52.388;13.390;2023-03-01T02:11:45;-4.22;85.12
57709;SHT35;42558;52.388;13.390;2023-03-01T02:14:17;-4.24;85.16
57709;SHT35;42558;52.388;13.390;2023-03-01T02:16:45;-4.23;85.20
57709;SHT35;42558;52.388;13.390;2023-03-01T02:19:18;-4.20;85.32
57709;SHT35;42558;52.388;13.390;2023-03-01T02:22:22;-4.25;84.99
57709;SHT35;42558;52.388;13.390;2023-03-01T02:30:52;-4.34;84.94
57709;SHT35;42558;52.388;13.390;2023-03-01T02:33:41;-4.36;85.02
57709;SHT35;42558;52.388;13.390;2023-03-01T02:36:15;-4.36;85.02
57709;SHT35;42558;52.388;13.390;2023-03-01T02:38:52;-4.36;85.12
57709;SHT35;42558;52.388;13.390;2023-03-01T02:41:27;-4.41;85.00
57709;SHT35;42558;52.388;13.390;2023-03-01T02:44:01;-4.45;84.93
57709;SHT35;42558;52.388;13.390;2023-03-01T02:46:32;-4.49;85.00
57709;SHT35;42558;52.388;13.390;2023-03-01T02:49:15;-4.52;85.00
57709;SHT35;42558;52.388;13.390;2023-03-01T02:54:48;-4.53;85.08
57709;SHT35;42558;52.388;13.390;2023-03-01T02:57:36;-4.55;85.01
57709;SHT35;42558;52.388;13.390;2023-03-01T03:00:13;-4.57;85.10
57709;SHT35;42558;52.388;13.390;2023-03-01T03:02:51;-4.55;85.19
57709;SHT35;42558;52.388;13.390;2023-03-01T03:05:25;-4.57;85.13
57709;SHT35;42558;52.388;13.390;2023-03-01T03:07:58;-4.59;85.10
57709;SHT35;42558;52.388;13.390;2023-03-01T03:10:33;-4.59;85.19
57709;SHT35;42558;52.388;13.390;2023-03-01T03:13:10;-4.57;85.31
57709;SHT35;42558;52.388;13.390;2023-03-01T03:15:42;-4.61;85.30
57709;SHT35;42558;52.388;13.390;2023-03-01T03:18:15;-4.62;85.38
57709;SHT35;42558;52.388;13.390;2023-03-01T03:20:46;-4.63;85.40
57709;SHT35;42558;52.388;13.390;2023-03-01T03:23:22;-4.63;85.40
57709;SHT35;42558;52.388;13.390;2023-03-01T03:25:52;-4.66;85.36
57709;SHT35;42558;52.388;13.390;2023-03-01T03:28:21;-4.69;85.34
57709;SHT35;42558;52.388;13.390;2023-03-01T03:30:49;-4.72;85.32
57709;SHT35;42558;52.388;13.390;2023-03-01T03:33:18;-4.76;85.44
57709;SHT35;42558;52.388;13.390;2023-03-01T03:35:47;-4.78;85.51
57709;SHT35;42558;52.388;13.390;2023-03-01T03:38:19;-4.80;85.60
57709;SHT35;42558;52.388;13.390;2023-03-01T03:40:52;-4.80;85.64
57709;SHT35;42558;52.388;13.390;2023-03-01T03:43:33;-4.82;85.71
57709;SHT35;42558;52.388;13.390;2023-03-01T03:46:06;-4.86;85.62
57709;SHT35;42558;52.388;13.390;2023-03-01T03:48:38;-4.86;85.65
57709;SHT35;42558;52.388;13.390;2023-03-01T03:51:11;-4.87;85.64
57709;SHT35;42558;52.388;13.390;2023-03-01T03:53:44;-4.86;85.68
57709;SHT35;42558;52.388;13.390;2023-03-01T03:56:15;-4.84;85.71
57709;SHT35;42558;52.388;13.390;2023-03-01T03:58:44;-4.82;85.74
57709;SHT35;42558;52.388;13.390;2023-03-01T04:01:14;-4.85;85.64
57709;SHT35;42558;52.388;13.390;2023-03-01T04:03:44;-4.86;85.64
57709;SHT35;42558;52.388;13.390;2023-03-01T04:06:16;-4.82;85.82
57709;SHT35;42558;52.388;13.390;2023-03-01T04:08:46;-4.80;85.93
57709;SHT35;42558;52.388;13.390;2023-03-01T04:11:15;-4.81;85.99
57709;SHT35;42558;52.388;13.390;2023-03-01T04:13:57;-4.82;86.03
57709;SHT35;42558;52.388;13.390;2023-03-01T04:16:28;-4.84;86.06
57709;SHT35;42558;52.388;13.390;2023-03-01T04:18:59;-4.89;85.87
57709;SHT35;42558;52.388;13.390;2023-03-01T04:21:29;-4.91;85.92
57709;SHT35;42558;52.388;13.390;2023-03-01T04:23:59;-4.92;86.01
57709;SHT35;42558;52.388;13.390;2023-03-01T04:26:29;-4.93;85.93
57709;SHT35;42558;52.388;13.390;2023-03-01T04:28:59;-4.95;85.91
57709;SHT35;42558;52.388;13.390;2023-03-01T04:31:29;-4.94;85.96
57709;SHT35;42558;52.388;13.390;2023-03-01T04:33:59;-4.98;85.90
57709;SHT35;42558;52.388;13.390;2023-03-01T04:36:29;-5.00;85.86
57709;SHT35;42558;52.388;13.390;2023-03-01T04:39:00;-5.03;85.89
57709;SHT35;42558;52.388;13.390;2023-03-01T04:41:41;-5.05;85.89
57709;SHT35;42558;52.388;13.390;2023-03-01T04:44:10;-5.10;85.86
57709;SHT35;42558;52.388;13.390;2023-03-01T04:46:38;-5.11;85.94
57709;SHT35;42558;52.388;13.390;2023-03-01T04:49:06;-5.11;86.02
57709;SHT35;42558;52.388;13.390;2023-03-01T04:51:35;-5.15;85.91
57709;SHT35;42558;52.388;13.390;2023-03-01T04:54:03;-5.19;85.94
57709;SHT35;42558;52.388;13.390;2023-03-01T04:56:32;-5.19;86.33
57709;SHT35;42558;52.388;13.390;2023-03-01T04:59:00;-5.21;86.74
57709;SHT35;42558;52.388;13.390;2023-03-01T05:01:28;-5.24;86.97
57709;SHT35;42558;52.388;13.390;2023-03-01T05:03:57;-5.22;86.99
57709;SHT35;42558;52.388;13.390;2023-03-01T05:06:32;-5.21;87.00
57709;SHT35;42558;52.388;13.390;2023-03-01T05:09:02;-5.22;86.97
57709;SHT35;42558;52.388;13.390;2023-03-01T05:11:32;-5.25;86.86
57709;SHT35;42558;52.388;13.390;2023-03-01T05:14:06;-5.27;86.79
57709;SHT35;42558;52.388;13.390;2023-03-01T05:16:38;-5.30;86.62
57709;SHT35;42558;52.388;13.390;2023-03-01T05:19:08;-5.31;86.54
57709;SHT35;42558;52.388;13.390;2023-03-01T05:21:44;-5.33;86.52
57709;SHT35;42558;52.388;13.390;2023-03-01T05:24:34;-5.35;86.46
57709;SHT35;42558;52.388;13.390;2023-03-01T05:27:04;-5.40;86.29
57709;SHT35;42558;52.388;13.390;2023-03-01T05:29:33;-5.39;86.35
57709;SHT35;42558;52.388;13.390;2023-03-01T05:32:02;-5.41;86.31
57709;SHT35;42558;52.388;13.390;2023-03-01T05:34:31;-5.40;86.37
57709;SHT35;42558;52.388;13.390;2023-03-01T05:37:04;-5.38;86.38
57709;SHT35;42558;52.388;13.390;2023-03-01T05:39:36;-5.41;86.26
57709;SHT35;42558;52.388;13.390;2023-03-01T05:42:09;-5.44;86.20
57709;SHT35;42558;52.388;13.390;2023-03-01T05:44:42;-5.45;86.23
57709;SHT35;42558;52.388;13.390;2023-03-01T05:47:12;-5.48;86.20
57709;SHT35;42558;52.388;13.390;2023-03-01T05:49:42;-5.48;86.18
57709;SHT35;42558;52.388;13.390;2023-03-01T05:52:12;-5.50;86.15
57709;SHT35;42558;52.388;13.390;2023-03-01T05:54:42;-5.50;86.13
57709;SHT35;42558;52.388;13.390;2023-03-01T05:57:11;-5.50;86.19
57709;SHT35;42558;52.388;13.390;2023-03-01T05:59:41;-5.49;86.22
57709;SHT35;42558;52.388;13.390;2023-03-01T06:02:11;-5.47;86.20
57709;SHT35;42558;52.388;13.390;2023-03-01T06:04:41;-5.47;86.19
57709;SHT35;42558;52.388;13.390;2023-03-01T06:07:11;-5.47;86.13
57709;SHT35;42558;52.388;13.390;2023-03-01T06:09:40;-5.47;86.09
57709;SHT35;42558;52.388;13.390;2023-03-01T06:12:11;-5.41;86.16
57709;SHT35;42558;52.388;13.390;2023-03-01T06:14:46;-5.38;86.17
57709;SHT35;42558;52.388;13.390;2023-03-01T06:17:17;-5.35;86.12
57709;SHT35;42558;52.388;13.390;2023-03-01T06:19:46;-5.35;86.00
57709;SHT35;42558;52.388;13.390;2023-03-01T06:22:16;-5.31;86.00
57709;SHT35;42558;52.388;13.390;2023-03-01T06:24:46;-5.28;86.00
57709;SHT35;42558;52.388;13.390;2023-03-01T06:27:16;-5.27;85.95
57709;SHT35;42558;52.388;13.390;2023-03-01T06:29:46;-5.23;85.90
57709;SHT35;42558;52.388;13.390;2023-03-01T06:32:16;-5.19;85.89
57709;SHT35;42558;52.388;13.390;2023-03-01T06:34:46;-5.11;85.94
57709;SHT35;42558;52.388;13.390;2023-03-01T06:37:16;-5.04;85.91
57709;SHT35;42558;52.388;13.390;2023-03-01T06:39:46;-4.96;85.92
57709;SHT35;42558;52.388;13.390;2023-03-01T06:42:16;-4.89;85.91
57709;SHT35;42558;52.388;13.390;2023-03-01T06:44:46;-4.84;85.80
57709;SHT35;42558;52.388;13.390;2023-03-01T06:47:16;-4.78;85.71
57709;SHT35;42558;52.388;13.390;2023-03-01T06:49:46;-4.72;85.70
57709;SHT35;42558;52.388;13.390;2023-03-01T06:52:15;-4.65;85.70
57709;SHT35;42558;52.388;13.390;2023-03-01T06:54:45;-4.56;85.79
57709;SHT35;42558;52.388;13.390;2023-03-01T06:57:15;-4.46;85.82
57709;SHT35;42558;52.388;13.390;2023-03-01T06:59:46;-4.36;85.80
57709;SHT35;42558;52.388;13.390;2023-03-01T07:02:17;-4.29;85.71
57709;SHT35;42558;52.388;13.390;2023-03-01T07:04:51;-4.19;85.69
57709;SHT35;42558;52.388;13.390;2023-03-01T07:07:21;-4.09;85.64
57709;SHT35;42558;52.388;13.390;2023-03-01T07:09:51;-3.98;85.63
57709;SHT35;42558;52.388;13.390;2023-03-01T07:12:22;-3.83;85.67
57709;SHT35;42558;52.388;13.390;2023-03-01T07:14:52;-3.66;85.52
57709;SHT35;42558;52.388;13.390;2023-03-01T07:17:22;-2.30;85.37
57709;SHT35;42558;52.388;13.390;2023-03-01T07:19:52;-0.46;82.89
57709;SHT35;42558;52.388;13.390;2023-03-01T07:22:22;-0.17;78.69
57709;SHT35;42558;52.388;13.390;2023-03-01T07:24:50;1.22;76.47
57709;SHT35;42558;52.388;13.390;2023-03-01T07:27:19;2.92;70.83
57709;SHT35;42558;52.388;13.390;2023-03-01T07:29:47;3.93;64.22
57709;SHT35;42558;52.388;13.390;2023-03-01T07:32:15;4.49;61.53
57709;SHT35;42558;52.388;13.390;2023-03-01T07:34:44;4.16;61.58
57709;SHT35;42558;52.388;13.390;2023-03-01T07:37:12;4.18;63.23
57709;SHT35;42558;52.388;13.390;2023-03-01T07:39:41;4.91;62.01
57709;SHT35;42558;52.388;13.390;2023-03-01T07:42:10;5.49;59.53
57709;SHT35;42558;52.388;13.390;2023-03-01T07:44:40;5.91;57.86
57709;SHT35;42558;52.388;13.390;2023-03-01T07:47:09;5.65;57.73
57709;SHT35;42558;52.388;13.390;2023-03-01T07:49:37;5.66;59.28
57709;SHT35;42558;52.388;13.390;2023-03-01T07:52:05;5.57;59.03
57709;SHT35;42558;52.388;13.390;2023-03-01T07:54:32;5.85;59.80
57709;SHT35;42558;52.388;13.390;2023-03-01T07:57:00;5.98;58.84
57709;SHT35;42558;52.388;13.390;2023-03-01T07:59:29;6.07;60.00
57709;SHT35;42558;52.388;13.390;2023-03-01T08:01:57;6.18;59.50
57709;SHT35;42558;52.388;13.390;2023-03-01T08:04:26;6.64;59.02
57709;SHT35;42558;52.388;13.390;2023-03-01T08:06:54;6.38;57.86
57709;SHT35;42558;52.388;13.390;2023-03-01T08:09:22;6.05;58.98
57709;SHT35;42558;52.388;13.390;2023-03-01T08:11:51;6.36;58.38
57709;SHT35;42558;52.388;13.390;2023-03-01T08:14:19;6.39;59.73
57709;SHT35;42558;52.388;13.390;2023-03-01T08:16:51;6.47;58.51
57709;SHT35;42558;52.388;13.390;2023-03-01T08:19:21;6.39;60.47
57709;SHT35;42558;52.388;13.390;2023-03-01T08:21:51;6.54;60.53
57709;SHT35;42558;52.388;13.390;2023-03-01T08:24:21;6.80;57.91
57709;SHT35;42558;52.388;13.390;2023-03-01T08:26:51;7.15;54.32
57709;SHT35;42558;52.388;13.390;2023-03-01T08:29:21;6.67;54.84
57709;SHT35;42558;52.388;13.390;2023-03-01T08:31:51;5.86;57.08
57709;SHT35;42558;52.388;13.390;2023-03-01T08:34:21;5.05;58.36
57709;SHT35;42558;52.388;13.390;2023-03-01T08:36:51;3.83;62.20
57709;SHT35;42558;52.388;13.390;2023-03-01T08:39:21;4.29;64.41
57709;SHT35;42558;52.388;13.390;2023-03-01T08:41:51;5.93;61.26
57709;SHT35;42558;52.388;13.390;2023-03-01T08:44:22;7.18;55.21
57709;SHT35;42558;52.388;13.390;2023-03-01T08:46:52;7.65;53.50
57709;SHT35;42558;52.388;13.390;2023-03-01T08:49:23;7.86;53.68
57709;SHT35;42558;52.388;13.390;2023-03-01T08:51:53;7.34;53.49
57709;SHT35;42558;52.388;13.390;2023-03-01T08:54:23;6.96;58.28
57709;SHT35;42558;52.388;13.390;2023-03-01T08:56:53;7.80;55.21
57709;SHT35;42558;52.388;13.390;2023-03-01T08:59:23;8.02;47.94
57709;SHT35;42558;52.388;13.390;2023-03-01T09:01:54;7.95;48.38
57709;SHT35;42558;52.388;13.390;2023-03-01T09:04:23;7.62;49.23
57709;SHT35;42558;52.388;13.390;2023-03-01T09:06:53;6.57;53.22
57709;SHT35;42558;52.388;13.390;2023-03-01T09:09:23;6.45;52.77
57709;SHT35;42558;52.388;13.390;2023-03-01T09:11:53;5.41;54.13
57709;SHT35;42558;52.388;13.390;2023-03-01T09:14:23;5.70;54.50
57709;SHT35;42558;52.388;13.390;2023-03-01T09:16:53;6.80;53.97
57709;SHT35;42558;52.388;13.390;2023-03-01T09:19:23;8.12;52.10
57709;SHT35;42558;52.388;13.390;2023-03-01T09:21:53;7.31;49.45
57709;SHT35;42558;52.388;13.390;2023-03-01T09:24:25;7.26;53.54
57709;SHT35;42558;52.388;13.390;2023-03-01T09:26:54;7.21;51.73
57709;SHT35;42558;52.388;13.390;2023-03-01T09:29:25;7.75;51.08
57709;SHT35;42558;52.388;13.390;2023-03-01T09:31:53;8.58;48.54
57709;SHT35;42558;52.388;13.390;2023-03-01T09:34:22;8.24;47.53
57709;SHT35;42558;52.388;13.390;2023-03-01T09:36:50;7.50;48.86
57709;SHT35;42558;52.388;13.390;2023-03-01T09:39:18;6.93;51.55
57709;SHT35;42558;52.388;13.390;2023-03-01T09:41:49;7.57;52.33
57709;SHT35;42558;52.388;13.390;2023-03-01T09:44:45;8.53;50.08
57709;SHT35;42558;52.388;13.390;2023-03-01T09:47:29;7.12;48.42
57709;SHT35;42558;52.388;13.390;2023-03-01T09:50:12;7.16;50.41
57709;SHT35;42558;52.388;13.390;2023-03-01T09:55:37;5.56;50.40
57709;SHT35;42558;52.388;13.390;2023-03-01T09:58:36;5.79;49.99
57709;SHT35;42558;52.388;13.390;2023-03-01T10:07:21;8.22;50.25
57709;SHT35;42558;52.388;13.390;2023-03-01T10:09:57;7.82;49.77
57709;SHT35;42558;52.388;13.390;2023-03-01T10:12:34;7.17;51.28
57709;SHT35;42558;52.388;13.390;2023-03-01T10:17:52;7.86;49.91
57709;SHT35;42558;52.388;13.390;2023-03-01T10:23:14;8.05;47.79
57709;SHT35;42558;52.388;13.390;2023-03-01T10:34:10;8.08;49.49
57709;SHT35;42558;52.388;13.390;2023-03-01T10:36:48;8.23;48.95
57709;SHT35;42558;52.388;13.390;2023-03-01T10:39:22;7.75;49.22
57709;SHT35;42558;52.388;13.390;2023-03-01T10:41:59;7.93;49.37
57709;SHT35;42558;52.388;13.390;2023-03-01T10:44:46;8.26;49.37
57709;SHT35;42558;52.388;13.390;2023-03-01T10:47:25;8.81;46.78
57709;SHT35;42558;52.388;13.390;2023-03-01T10:50:05;7.76;47.30
57709;SHT35;42558;52.388;13.390;2023-03-01T10:53:00;7.48;48.26
57709;SHT35;42558;52.388;13.390;2023-03-01T10:55:36;6.91;50.30
57709;SHT35;42558;52.388;13.390;2023-03-01T11:03:36;8.28;47.45
57709;SHT35;42558;52.388;13.390;2023-03-01T11:08:44;7.97;45.16
57709;SHT35;42558;52.388;13.390;2023-03-01T11:11:25;7.77;46.91
57709;SHT35;42558;52.388;13.390;2023-03-01T11:14:04;8.48;46.99
57709;SHT35;42558;52.388;13.390;2023-03-01T11:17:05;8.08;45.55
57709;SHT35;42558;52.388;13.390;2023-03-01T11:19:42;7.88;46.16
57709;SHT35;42558;52.388;13.390;2023-03-01T11:22:29;8.23;47.17
57709;SHT35;42558;52.388;13.390;2023-03-01T11:25:03;8.30;46.23
57709;SHT35;42558;52.388;13.390;2023-03-01T11:27:43;9.06;44.90
57709;SHT35;42558;52.388;13.390;2023-03-01T11:30:20;9.13;42.42
57709;SHT35;42558;52.388;13.390;2023-03-01T11:38:49;7.47;46.44
57709;SHT35;42558;52.388;13.390;2023-03-01T11:41:20;8.27;44.37
57709;SHT35;42558;52.388;13.390;2023-03-01T11:46:52;8.27;42.47
57709;SHT35;42558;52.388;13.390;2023-03-01T11:49:53;8.03;42.74
57709;SHT35;42558;52.388;13.390;2023-03-01T11:56:38;6.93;43.77
57709;SHT35;42558;52.388;13.390;2023-03-01T12:03:16;7.83;45.62
57709;SHT35;42558;52.388;13.390;2023-03-01T12:06:07;7.53;46.06
57709;SHT35;42558;52.388;13.390;2023-03-01T12:09:09;7.53;44.62
57709;SHT35;42558;52.388;13.390;2023-03-01T12:23:58;7.31;44.39
57709;SHT35;42558;52.388;13.390;2023-03-01T12:35:36;7.09;42.23
57709;SHT35;42558;52.388;13.390;2023-03-01T12:38:13;6.98;41.94
57709;SHT35;42558;52.388;13.390;2023-03-01T12:41:11;7.03;42.09
57709;SHT35;42558;52.388;13.390;2023-03-01T12:43:58;7.08;42.06
57709;SHT35;42558;52.388;13.390;2023-03-01T12:47:15;7.28;42.20
57709;SHT35;42558;52.388;13.390;2023-03-01T12:50:29;7.58;41.82
57709;SHT35;42558;52.388;13.390;2023-03-01T12:53:18;7.56;39.48
57709;SHT35;42558;52.388;13.390;2023-03-01T12:55:53;7.41;40.03
57709;SHT35;42558;52.388;13.390;2023-03-01T12:58:35;7.65;38.96
57709;SHT35;42558;52.388;13.390;2023-03-01T13:04:18;7.75;39.00
57709;SHT35;42558;52.388;13.390;2023-03-01T13:15:27;7.75;39.27
57709;SHT35;42558;52.388;13.390;2023-03-01T13:18:01;7.57;39.89
57709;SHT35;42558;52.388;13.390;2023-03-01T13:20:55;7.73;39.37
57709;SHT35;42558;52.388;13.390;2023-03-01T13:23:28;7.80;39.94
57709;SHT35;42558;52.388;13.390;2023-03-01T13:26:07;7.91;39.72
57709;SHT35;42558;52.388;13.390;2023-03-01T13:33:49;7.87;39.94
57709;SHT35;42558;52.388;13.390;2023-03-01T13:39:02;7.86;39.66
57709;SHT35;42558;52.388;13.390;2023-03-01T13:41:55;7.83;38.29
57709;SHT35;42558;52.388;13.390;2023-03-01T13:44:37;8.21;38.38
57709;SHT35;42558;52.388;13.390;2023-03-01T13:50:00;8.18;38.29
57709;SHT35;42558;52.388;13.390;2023-03-01T13:52:40;8.32;37.19
57709;SHT35;42558;52.388;13.390;2023-03-01T13:55:42;8.41;38.54
57709;SHT35;42558;52.388;13.390;2023-03-01T13:58:21;8.55;37.25
57709;SHT35;42558;52.388;13.390;2023-03-01T14:01:02;8.66;35.88
57709;SHT35;42558;52.388;13.390;2023-03-01T14:03:40;8.61;36.09
57709;SHT35;42558;52.388;13.390;2023-03-01T14:06:14;9.71;34.39
57709;SHT35;42558;52.388;13.390;2023-03-01T14:08:51;9.96;32.07
57709;SHT35;42558;52.388;13.390;2023-03-01T14:19:45;8.76;34.92
57709;SHT35;42558;52.388;13.390;2023-03-01T14:22:24;9.63;34.55
57709;SHT35;42558;52.388;13.390;2023-03-01T14:25:04;10.47;32.75
57709;SHT35;42558;52.388;13.390;2023-03-01T14:28:17;11.06;30.96
57709;SHT35;42558;52.388;13.390;2023-03-01T14:30:52;11.84;30.52
57709;SHT35;42558;52.388;13.390;2023-03-01T14:33:28;12.37;29.65
57709;SHT35;42558;52.388;13.390;2023-03-01T14:36:08;13.10;28.30
57709;SHT35;42558;52.388;13.390;2023-03-01T14:38:41;14.00;26.26
57709;SHT35;42558;52.388;13.390;2023-03-01T14:41:15;13.76;26.67
57709;SHT35;42558;52.388;13.390;2023-03-01T14:43:55;11.06;28.94
57709;SHT35;42558;52.388;13.390;2023-03-01T14:49:19;11.91;30.39
57709;SHT35;42558;52.388;13.390;2023-03-01T14:54:39;13.84;25.98
57709;SHT35;42558;52.388;13.390;2023-03-01T14:57:16;11.44;29.74
57709;SHT35;42558;52.388;13.390;2023-03-01T14:59:51;10.87;31.00
57709;SHT35;42558;52.388;13.390;2023-03-01T15:02:26;10.90;31.31
57709;SHT35;42558;52.388;13.390;2023-03-01T15:05:00;10.54;30.97
57709;SHT35;42558;52.388;13.390;2023-03-01T15:07:38;10.00;33.47
57709;SHT35;42558;52.388;13.390;2023-03-01T15:10:22;10.05;32.91
57709;SHT35;42558;52.388;13.390;2023-03-01T15:12:58;9.38;33.50
57709;SHT35;42558;52.388;13.390;2023-03-01T15:15:51;8.40;34.87
57709;SHT35;42558;52.388;13.390;2023-03-01T15:18:36;8.44;35.05
57709;SHT35;42558;52.388;13.390;2023-03-01T15:21:23;8.79;36.03
57709;SHT35;42558;52.388;13.390;2023-03-01T15:24:13;8.91;35.39
57709;SHT35;42558;52.388;13.390;2023-03-01T15:26:53;8.57;38.01
57709;SHT35;42558;52.388;13.390;2023-03-01T15:29:31;8.37;35.59
57709;SHT35;42558;52.388;13.390;2023-03-01T15:32:27;8.38;36.85
57709;SHT35;42558;52.388;13.390;2023-03-01T15:35:00;8.01;37.18
57709;SHT35;42558;52.388;13.390;2023-03-01T15:38:23;7.79;36.87
57709;SHT35;42558;52.388;13.390;2023-03-01T15:42:06;7.73;38.65
57709;SHT35;42558;52.388;13.390;2023-03-01T15:44:30;7.97;37.49
57709;SHT35;42558;52.388;13.390;2023-03-01T15:47:28;7.91;36.41
57709;SHT35;42558;52.388;13.390;2023-03-01T15:50:00;7.80;35.65
57709;SHT35;42558;52.388;13.390;2023-03-01T15:57:50;7.43;37.95
57709;SHT35;42558;52.388;13.390;2023-03-01T16:00:44;7.29;38.97
57709;SHT35;42558;52.388;13.390;2023-03-01T16:03:28;7.08;40.29
57709;SHT35;42558;52.388;13.390;2023-03-01T16:05:58;7.01;41.20
57709;SHT35;42558;52.388;13.390;2023-03-01T16:08:25;6.90;39.46
57709;SHT35;42558;52.388;13.390;2023-03-01T16:10:55;6.69;40.04
57709;SHT35;42558;52.388;13.390;2023-03-01T16:13:25;6.63;41.49
57709;SHT35;42558;52.388;13.390;2023-03-01T16:15:56;6.55;42.20
57709;SHT35;42558;52.388;13.390;2023-03-01T16:18:26;6.42;42.11
57709;SHT35;42558;52.388;13.390;2023-03-01T16:20:56;6.34;43.23
57709;SHT35;42558;52.388;13.390;2023-03-01T16:23:26;6.25;43.13
57709;SHT35;42558;52.388;13.390;2023-03-01T16:25:58;6.19;43.24
57709;SHT35;42558;52.388;13.390;2023-03-01T16:28:29;6.11;43.64
57709;SHT35;42558;52.388;13.390;2023-03-01T16:30:59;5.99;43.74
57709;SHT35;42558;52.388;13.390;2023-03-01T16:33:30;5.88;46.24
57709;SHT35;42558;52.388;13.390;2023-03-01T16:36:00;5.75;46.93
57709;SHT35;42558;52.388;13.390;2023-03-01T16:38:37;5.57;46.68
57709;SHT35;42558;52.388;13.390;2023-03-01T16:41:12;5.40;48.69
57709;SHT35;42558;52.388;13.390;2023-03-01T16:43:45;5.23;50.29
57709;SHT35;42558;52.388;13.390;2023-03-01T16:46:20;5.08;50.80
57709;SHT35;42558;52.388;13.390;2023-03-01T16:48:57;4.84;50.73
57709;SHT35;42558;52.388;13.390;2023-03-01T16:51:27;4.65;51.53
57709;SHT35;42558;52.388;13.390;2023-03-01T16:53:59;4.55;52.79
57709;SHT35;42558;52.388;13.390;2023-03-01T16:56:29;4.45;53.66
57709;SHT35;42558;52.388;13.390;2023-03-01T16:59:02;4.31;54.74
57709;SHT35;42558;52.388;13.390;2023-03-01T17:01:34;4.18;55.80
57709;SHT35;42558;52.388;13.390;2023-03-01T17:04:10;4.03;55.88
57709;SHT35;42558;52.388;13.390;2023-03-01T17:06:40;3.91;56.37
57709;SHT35;42558;52.388;13.390;2023-03-01T17:09:08;3.79;55.86
57709;SHT35;42558;52.388;13.390;2023-03-01T17:11:37;3.71;57.76
57709;SHT35;42558;52.388;13.390;2023-03-01T17:14:05;3.59;59.16
57709;SHT35;42558;52.388;13.390;2023-03-01T17:16:34;3.43;60.33
57709;SHT35;42558;52.388;13.390;2023-03-01T17:19:02;3.32;61.68
57709;SHT35;42558;52.388;13.390;2023-03-01T17:21:30;3.19;62.36
57709;SHT35;42558;52.388;13.390;2023-03-01T17:23:59;3.10;62.64
57709;SHT35;42558;52.388;13.390;2023-03-01T17:26:27;2.99;63.26
57709;SHT35;42558;52.388;13.390;2023-03-01T17:28:56;2.88;63.94
57709;SHT35;42558;52.388;13.390;2023-03-01T17:31:27;2.77;64.19
57709;SHT35;42558;52.388;13.390;2023-03-01T17:33:56;2.68;64.48
57709;SHT35;42558;52.388;13.390;2023-03-01T17:36:29;2.58;64.94
57709;SHT35;42558;52.388;13.390;2023-03-01T17:38:59;2.48;65.25
57709;SHT35;42558;52.388;13.390;2023-03-01T17:41:26;2.35;65.37
57709;SHT35;42558;52.388;13.390;2023-03-01T17:43:57;2.27;65.79
57709;SHT35;42558;52.388;13.390;2023-03-01T17:46:27;2.18;66.01
57709;SHT35;42558;52.388;13.390;2023-03-01T17:48:57;2.08;66.26
57709;SHT35;42558;52.388;13.390;2023-03-01T17:51:26;2.02;66.88
57709;SHT35;42558;52.388;13.390;2023-03-01T17:53:56;1.94;66.91
57709;SHT35;42558;52.388;13.390;2023-03-01T17:56:26;1.90;67.01
57709;SHT35;42558;52.388;13.390;2023-03-01T17:58:56;1.84;67.49
57709;SHT35;42558;52.388;13.390;2023-03-01T18:01:26;1.76;67.66
57709;SHT35;42558;52.388;13.390;2023-03-01T18:03:56;1.70;67.71
57709;SHT35;42558;52.388;13.390;2023-03-01T18:06:25;1.63;68.27
57709;SHT35;42558;52.388;13.390;2023-03-01T18:08:55;1.62;68.08